Wetterdaten: Woche 10.05.10 - 16.05.10 (KW19)
Datum Zeit Temperatur Luftfeuchte Luftdruck Niederschlag Windrichtung Sonnenschein Solar Wind
10.05.2010 00:00 9,2 C 97 % 1005,6 hPa 0,2 l/m N 0,00 h 0 W/m 0,5 km/h (0 Bft)
10.05.2010 01:00 9,2 C 98 % 1005,2 hPa 0,2 l/m N 0,00 h 0 W/m 0,8 km/h (0 Bft)
10.05.2010 02:00 9,2 C 98 % 1004,7 hPa 1,4 l/m N 0,00 h 0 W/m 0,3 km/h (0 Bft)
10.05.2010 03:00 9,2 C 97 % 1003,9 hPa 0,6 l/m N 0,00 h 0 W/m 1,6 km/h (1 Bft)
10.05.2010 04:00 9,1 C 98 % 1003,8 hPa 0,0 l/m N 0,00 h 0 W/m 0,3 km/h (0 Bft)
10.05.2010 05:00 9,0 C 98 % 1003,7 hPa 0,4 l/m N 0,00 h 0 W/m 0,1 km/h (0 Bft)
10.05.2010 06:00 9,1 C 98 % 1004,0 hPa 0,8 l/m O 0,00 h 12 W/m 2,1 km/h (1 Bft)
10.05.2010 07:00 9,2 C 98 % 1004,1 hPa 0,0 l/m N 0,00 h 34 W/m 2,5 km/h (1 Bft)
10.05.2010 08:00 9,5 C 97 % 1004,0 hPa 0,4 l/m O 0,00 h 62 W/m 2,4 km/h (1 Bft)
10.05.2010 09:00 9,9 C 98 % 1004,1 hPa 0,6 l/m SW 0,00 h 115 W/m 8,4 km/h (2 Bft)
10.05.2010 10:00 10,5 C 97 % 1004,1 hPa 0,4 l/m SW 0,00 h 117 W/m 11,9 km/h (2 Bft)
10.05.2010 11:00 10,8 C 97 % 1004,3 hPa 0,0 l/m SW 0,00 h 108 W/m 9,4 km/h (2 Bft)
10.05.2010 12:00 11,6 C 95 % 1004,6 hPa 0,0 l/m SW 0,00 h 283 W/m 15,2 km/h (3 Bft)
10.05.2010 13:00 13,0 C 89 % 1004,6 hPa 0,0 l/m SW 0,25 h 452 W/m 14,8 km/h (3 Bft)
10.05.2010 14:00 14,4 C 81 % 1004,2 hPa 0,0 l/m W-SW 0,08 h 326 W/m 16,6 km/h (3 Bft)
10.05.2010 15:00 15,1 C 78 % 1004,1 hPa 0,0 l/m SW 0,58 h 610 W/m 15,8 km/h (3 Bft)
10.05.2010 16:00 12,8 C 85 % 1004,3 hPa 4,0 l/m NW 0,17 h 233 W/m 11,1 km/h (2 Bft)
10.05.2010 17:00 13,8 C 87 % 1004,5 hPa 0,0 l/m W-SW 0,58 h 396 W/m 6,1 km/h (2 Bft)
10.05.2010 18:00 13,2 C 89 % 1004,5 hPa 10,4 l/m W-SW 0,00 h 20 W/m 3,9 km/h (1 Bft)
10.05.2010 19:00 11,1 C 94 % 1004,9 hPa 1,8 l/m NW 0,00 h 23 W/m 3,7 km/h (1 Bft)
10.05.2010 20:00 11,1 C 96 % 1005,5 hPa 0,0 l/m SW 0,08 h 18 W/m 9,8 km/h (2 Bft)
10.05.2010 21:00 10,1 C 96 % 1005,8 hPa 0,2 l/m S-SW 0,00 h 0 W/m 5,5 km/h (1 Bft)
10.05.2010 22:00 9,5 C 97 % 1005,9 hPa 0,0 l/m S-SW 0,00 h 0 W/m 3,6 km/h (1 Bft)
10.05.2010 23:00 8,4 C 97 % 1005,8 hPa 0,0 l/m N 0,00 h 0 W/m 0,7 km/h (0 Bft)
11.05.2010 00:00 8,0 C 98 % 1005,8 hPa 0,0 l/m N 0,00 h 0 W/m 0,0 km/h (0 Bft)
11.05.2010 01:00 7,3 C 98 % 1005,8 hPa 0,0 l/m N 0,00 h 0 W/m 0,1 km/h (0 Bft)
11.05.2010 02:00 6,9 C 99 % 1005,6 hPa 0,0 l/m N 0,00 h 0 W/m 0,7 km/h (0 Bft)
11.05.2010 03:00 6,4 C 99 % 1005,3 hPa 0,0 l/m N 0,00 h 0 W/m 0,4 km/h (0 Bft)
11.05.2010 04:00 5,8 C 99 % 1005,1 hPa 0,0 l/m N 0,00 h 0 W/m 0,4 km/h (0 Bft)
11.05.2010 05:00 5,7 C 99 % 1004,9 hPa 0,0 l/m N 0,00 h 5 W/m 0,4 km/h (0 Bft)
11.05.2010 06:00 5,9 C 99 % 1005,1 hPa 0,0 l/m N-NW 0,08 h 30 W/m 6,4 km/h (2 Bft)
11.05.2010 07:00 6,9 C 99 % 1004,9 hPa 0,0 l/m N-NW 0,00 h 71 W/m 3,9 km/h (1 Bft)
11.05.2010 08:00 8,4 C 99 % 1004,7 hPa 0,0 l/m N 0,25 h 191 W/m 2,3 km/h (1 Bft)
11.05.2010 09:00 9,6 C 96 % 1004,4 hPa 0,0 l/m N 0,00 h 186 W/m 1,6 km/h (1 Bft)
11.05.2010 10:00 11,5 C 92 % 1003,7 hPa 0,0 l/m O-NO 0,58 h 421 W/m 7,6 km/h (2 Bft)
11.05.2010 11:00 14,0 C 84 % 1003,1 hPa 0,0 l/m O 0,92 h 612 W/m 11,7 km/h (2 Bft)
11.05.2010 12:00 16,2 C 72 % 1002,1 hPa 0,0 l/m O-NO 1,00 h 871 W/m 16,1 km/h (3 Bft)
11.05.2010 13:00 17,9 C 61 % 1001,3 hPa 0,0 l/m O-NO 1,00 h 874 W/m 18,5 km/h (3 Bft)
11.05.2010 14:00 18,7 C 60 % 1000,7 hPa 0,0 l/m O-NO 1,00 h 888 W/m 20,8 km/h (4 Bft)
11.05.2010 15:00 19,1 C 62 % 999,9 hPa 0,0 l/m O-SO 0,75 h 586 W/m 18,6 km/h (3 Bft)
11.05.2010 16:00 19,7 C 60 % 999,1 hPa 0,0 l/m O-NO 0,58 h 470 W/m 18,2 km/h (3 Bft)
11.05.2010 17:00 19,2 C 63 % 998,5 hPa 0,0 l/m NO 0,25 h 272 W/m 12,1 km/h (2 Bft)
11.05.2010 18:00 17,9 C 70 % 998,9 hPa 0,0 l/m O-NO 0,00 h 39 W/m 7,8 km/h (2 Bft)
11.05.2010 19:00 13,0 C 85 % 1000,0 hPa 3,4 l/m NW 0,00 h 18 W/m 38,1 km/h (5 Bft)
11.05.2010 20:00 11,2 C 92 % 1002,3 hPa 0,0 l/m W-SW 0,00 h 10 W/m 14,6 km/h (3 Bft)
11.05.2010 21:00 11,3 C 93 % 1002,9 hPa 0,0 l/m W-SW 0,00 h 0 W/m 12,5 km/h (3 Bft)
11.05.2010 22:00 10,8 C 92 % 1003,9 hPa 0,0 l/m SW 0,00 h 0 W/m 7,1 km/h (2 Bft)
11.05.2010 23:00 10,4 C 93 % 1004,1 hPa 0,0 l/m SW 0,00 h 0 W/m 9,7 km/h (2 Bft)
12.05.2010 00:00 10,1 C 94 % 1004,5 hPa 0,0 l/m SW 0,00 h 0 W/m 4,7 km/h (1 Bft)
12.05.2010 01:00 10,0 C 94 % 1004,6 hPa 0,0 l/m W-SW 0,00 h 0 W/m 12,8 km/h (3 Bft)
12.05.2010 02:00 9,8 C 94 % 1004,5 hPa 0,0 l/m SW 0,00 h 0 W/m 8,3 km/h (2 Bft)
12.05.2010 03:00 9,6 C 94 % 1004,6 hPa 0,0 l/m SW 0,00 h 0 W/m 4,1 km/h (1 Bft)
12.05.2010 04:00 9,3 C 96 % 1004,8 hPa 0,0 l/m N 0,00 h 0 W/m 0,8 km/h (0 Bft)
12.05.2010 05:00 9,1 C 96 % 1005,0 hPa 0,0 l/m W-SW 0,00 h 0 W/m 4,0 km/h (1 Bft)
12.05.2010 06:00 9,2 C 97 % 1005,5 hPa 0,0 l/m N 0,00 h 26 W/m 0,0 km/h (0 Bft)
12.05.2010 07:00 9,8 C 96 % 1005,9 hPa 0,0 l/m W-SW 0,00 h 103 W/m 5,9 km/h (2 Bft)
12.05.2010 08:00 10,4 C 92 % 1005,9 hPa 0,0 l/m SW 0,00 h 137 W/m 6,3 km/h (2 Bft)
12.05.2010 09:00 11,2 C 84 % 1006,2 hPa 0,0 l/m W-SW 0,25 h 269 W/m 6,0 km/h (2 Bft)
12.05.2010 10:00 12,5 C 81 % 1006,5 hPa 0,0 l/m S-SW 0,92 h 670 W/m 8,3 km/h (2 Bft)
12.05.2010 11:00 13,7 C 75 % 1006,2 hPa 0,0 l/m SW 0,67 h 691 W/m 11,1 km/h (2 Bft)
12.05.2010 12:00 14,8 C 68 % 1006,0 hPa 0,0 l/m S-SW 0,42 h 485 W/m 9,4 km/h (2 Bft)
12.05.2010 13:00 14,8 C 63 % 1005,7 hPa 0,0 l/m W-SW 0,50 h 492 W/m 5,3 km/h (1 Bft)
12.05.2010 14:00 15,6 C 59 % 1005,3 hPa 0,0 l/m O-SO 0,08 h 379 W/m 7,1 km/h (2 Bft)
12.05.2010 15:00 15,9 C 57 % 1005,0 hPa 0,0 l/m O-NO 0,08 h 368 W/m 6,5 km/h (2 Bft)
12.05.2010 16:00 16,3 C 55 % 1004,8 hPa 0,0 l/m O-NO 0,25 h 361 W/m 9,6 km/h (2 Bft)
12.05.2010 17:00 15,8 C 64 % 1004,6 hPa 0,0 l/m N-NO 0,50 h 322 W/m 16,2 km/h (3 Bft)
12.05.2010 18:00 14,9 C 71 % 1004,7 hPa 0,0 l/m O-NO 0,42 h 171 W/m 15,0 km/h (3 Bft)
12.05.2010 19:00 13,7 C 81 % 1005,0 hPa 0,6 l/m O-NO 0,17 h 79 W/m 10,8 km/h (2 Bft)
12.05.2010 20:00 13,0 C 81 % 1005,1 hPa 0,0 l/m O-NO 0,00 h 21 W/m 13,0 km/h (3 Bft)
12.05.2010 21:00 11,7 C 89 % 1005,6 hPa 1,2 l/m O-NO 0,00 h 0 W/m 12,5 km/h (3 Bft)
12.05.2010 22:00 10,9 C 94 % 1005,7 hPa 0,2 l/m N-NO 0,00 h 0 W/m 9,4 km/h (2 Bft)
12.05.2010 23:00 10,6 C 94 % 1005,4 hPa 0,0 l/m NO 0,00 h 0 W/m 9,5 km/h (2 Bft)
13.05.2010 00:00 10,6 C 93 % 1005,1 hPa 0,0 l/m N-NO 0,00 h 0 W/m 10,9 km/h (2 Bft)
13.05.2010 01:00 10,3 C 92 % 1004,8 hPa 0,4 l/m NO 0,00 h 0 W/m 11,8 km/h (2 Bft)
13.05.2010 02:00 9,9 C 92 % 1004,5 hPa 0,2 l/m NO 0,00 h 0 W/m 12,4 km/h (3 Bft)
13.05.2010 03:00 9,7 C 91 % 1004,5 hPa 0,0 l/m O-NO 0,00 h 0 W/m 13,2 km/h (3 Bft)
13.05.2010 04:00 9,3 C 93 % 1004,7 hPa 0,0 l/m N-NO 0,00 h 0 W/m 14,5 km/h (3 Bft)
13.05.2010 05:00 8,7 C 93 % 1004,7 hPa 0,0 l/m N-NO 0,00 h 0 W/m 15,4 km/h (3 Bft)
13.05.2010 06:00 8,1 C 93 % 1005,0 hPa 0,8 l/m NO 0,00 h 6 W/m 18,6 km/h (3 Bft)
13.05.2010 07:00 7,6 C 95 % 1005,6 hPa 1,4 l/m N-NO 0,00 h 13 W/m 12,2 km/h (2 Bft)
13.05.2010 08:00 7,3 C 96 % 1005,9 hPa 0,6 l/m NO 0,00 h 36 W/m 12,0 km/h (2 Bft)
13.05.2010 09:00 7,4 C 96 % 1006,2 hPa 0,0 l/m NO 0,00 h 52 W/m 12,6 km/h (3 Bft)
13.05.2010 10:00 7,6 C 96 % 1006,5 hPa 0,0 l/m N-NO 0,00 h 59 W/m 12,9 km/h (3 Bft)
13.05.2010 11:00 7,9 C 96 % 1006,9 hPa 0,4 l/m NO 0,00 h 69 W/m 9,1 km/h (2 Bft)
13.05.2010 12:00 7,7 C 96 % 1007,2 hPa 1,4 l/m N-NW 0,00 h 116 W/m 11,8 km/h (2 Bft)
13.05.2010 13:00 7,6 C 96 % 1007,4 hPa 0,0 l/m N-NO 0,00 h 157 W/m 14,6 km/h (3 Bft)
13.05.2010 14:00 7,6 C 96 % 1007,8 hPa 0,0 l/m N 0,00 h 112 W/m 12,6 km/h (3 Bft)
13.05.2010 15:00 7,6 C 95 % 1008,0 hPa 0,0 l/m N-NW 0,00 h 111 W/m 12,4 km/h (3 Bft)
13.05.2010 16:00 7,8 C 93 % 1008,0 hPa 0,0 l/m N 0,00 h 125 W/m 12,5 km/h (3 Bft)
13.05.2010 17:00 7,9 C 91 % 1008,2 hPa 0,0 l/m N-NO 0,00 h 111 W/m 11,3 km/h (2 Bft)
13.05.2010 18:00 7,7 C 91 % 1008,4 hPa 0,0 l/m N 0,00 h 48 W/m 10,1 km/h (2 Bft)
13.05.2010 19:00 7,4 C 93 % 1008,7 hPa 0,6 l/m N-NO 0,00 h 26 W/m 6,3 km/h (2 Bft)
13.05.2010 20:00 6,9 C 96 % 1008,9 hPa 0,8 l/m N-NO 0,00 h 7 W/m 7,0 km/h (2 Bft)
13.05.2010 21:00 6,7 C 96 % 1009,2 hPa 0,2 l/m N 0,00 h 0 W/m 5,9 km/h (2 Bft)
13.05.2010 22:00 6,6 C 97 % 1009,5 hPa 0,0 l/m N 0,00 h 0 W/m 4,0 km/h (1 Bft)
13.05.2010 23:00 6,6 C 97 % 1009,4 hPa 0,0 l/m N 0,00 h 0 W/m 4,7 km/h (1 Bft)
14.05.2010 00:00 6,5 C 97 % 1009,2 hPa 0,0 l/m N 0,00 h 0 W/m 5,7 km/h (1 Bft)
14.05.2010 01:00 6,3 C 96 % 1008,9 hPa 0,0 l/m N 0,00 h 0 W/m 7,1 km/h (2 Bft)
14.05.2010 02:00 6,2 C 96 % 1008,7 hPa 0,0 l/m N-NO 0,00 h 0 W/m 4,3 km/h (1 Bft)
14.05.2010 03:00 6,2 C 96 % 1008,5 hPa 0,0 l/m N-NO 0,00 h 0 W/m 5,9 km/h (2 Bft)
14.05.2010 04:00 6,0 C 97 % 1008,2 hPa 0,2 l/m N-NO 0,00 h 0 W/m 5,7 km/h (1 Bft)
14.05.2010 05:00 5,9 C 97 % 1008,1 hPa 0,0 l/m N-NO 0,00 h 0 W/m 4,1 km/h (1 Bft)
14.05.2010 06:00 5,9 C 97 % 1008,2 hPa 0,2 l/m N-NO 0,00 h 7 W/m 4,3 km/h (1 Bft)
14.05.2010 07:00 5,9 C 98 % 1008,2 hPa 0,8 l/m N-NO 0,00 h 21 W/m 5,1 km/h (1 Bft)
14.05.2010 08:00 6,1 C 97 % 1008,3 hPa 0,2 l/m N-NO 0,00 h 85 W/m 6,0 km/h (2 Bft)
14.05.2010 09:00 6,5 C 96 % 1008,4 hPa 0,0 l/m N 0,00 h 97 W/m 7,3 km/h (2 Bft)
14.05.2010 10:00 7,0 C 94 % 1008,6 hPa 0,0 l/m N-NO 0,00 h 158 W/m 6,0 km/h (2 Bft)
14.05.2010 11:00 7,3 C 91 % 1008,7 hPa 0,0 l/m O-NO 0,00 h 137 W/m 6,3 km/h (2 Bft)
14.05.2010 12:00 7,8 C 89 % 1008,6 hPa 0,0 l/m O-NO 0,00 h 163 W/m 3,6 km/h (1 Bft)
14.05.2010 13:00 8,2 C 87 % 1008,6 hPa 0,0 l/m N-NO 0,00 h 159 W/m 3,6 km/h (1 Bft)
14.05.2010 14:00 9,1 C 83 % 1008,5 hPa 0,2 l/m N 0,00 h 345 W/m 8,3 km/h (2 Bft)
14.05.2010 15:00 9,2 C 83 % 1008,6 hPa 0,0 l/m NW 0,00 h 173 W/m 7,4 km/h (2 Bft)
14.05.2010 16:00 9,2 C 83 % 1008,5 hPa 0,0 l/m O-NO 0,00 h 218 W/m 12,9 km/h (3 Bft)
14.05.2010 17:00 9,6 C 82 % 1008,5 hPa 0,0 l/m N-NO 0,00 h 170 W/m 11,7 km/h (2 Bft)
14.05.2010 18:00 9,0 C 84 % 1008,5 hPa 0,0 l/m N-NO 0,00 h 48 W/m 9,8 km/h (2 Bft)
14.05.2010 19:00 8,7 C 86 % 1008,6 hPa 0,0 l/m N 0,00 h 20 W/m 6,3 km/h (2 Bft)
14.05.2010 20:00 8,4 C 88 % 1008,9 hPa 0,0 l/m N-NO 0,00 h 9 W/m 6,8 km/h (2 Bft)
14.05.2010 21:00 7,9 C 91 % 1008,9 hPa 0,0 l/m N-NO 0,00 h 0 W/m 8,2 km/h (2 Bft)
14.05.2010 22:00 7,5 C 93 % 1009,0 hPa 0,0 l/m N-NO 0,00 h 0 W/m 5,9 km/h (2 Bft)
14.05.2010 23:00 7,3 C 93 % 1009,1 hPa 0,0 l/m N-NO 0,00 h 0 W/m 5,5 km/h (1 Bft)
15.05.2010 00:00 7,2 C 93 % 1009,1 hPa 0,0 l/m NO 0,00 h 0 W/m 4,9 km/h (1 Bft)
15.05.2010 01:00 7,2 C 94 % 1008,7 hPa 0,0 l/m N-NO 0,00 h 0 W/m 6,1 km/h (2 Bft)
15.05.2010 02:00 6,9 C 94 % 1008,0 hPa 0,0 l/m N-NO 0,00 h 0 W/m 9,1 km/h (2 Bft)
15.05.2010 03:00 6,8 C 94 % 1007,6 hPa 0,0 l/m NO 0,00 h 0 W/m 8,0 km/h (2 Bft)
15.05.2010 04:00 6,8 C 94 % 1007,5 hPa 0,0 l/m N-NO 0,00 h 0 W/m 7,1 km/h (2 Bft)
15.05.2010 05:00 6,7 C 95 % 1007,4 hPa 0,0 l/m N-NO 0,00 h 0 W/m 6,3 km/h (2 Bft)
15.05.2010 06:00 6,5 C 95 % 1007,2 hPa 0,0 l/m N-NO 0,00 h 15 W/m 8,4 km/h (2 Bft)
15.05.2010 07:00 6,5 C 96 % 1007,1 hPa 0,0 l/m O-NO 0,00 h 27 W/m 9,8 km/h (2 Bft)
15.05.2010 08:00 6,6 C 95 % 1007,3 hPa 0,0 l/m O-NO 0,00 h 35 W/m 9,5 km/h (2 Bft)
15.05.2010 09:00 6,5 C 96 % 1007,5 hPa 0,0 l/m O-NO 0,00 h 71 W/m 11,0 km/h (2 Bft)
15.05.2010 10:00 6,5 C 96 % 1007,6 hPa 0,2 l/m O-NO 0,00 h 119 W/m 10,8 km/h (2 Bft)
15.05.2010 11:00 7,3 C 92 % 1007,5 hPa 0,0 l/m O-NO 0,00 h 242 W/m 10,8 km/h (2 Bft)
15.05.2010 12:00 7,8 C 89 % 1007,6 hPa 0,0 l/m N-NO 0,00 h 212 W/m 10,6 km/h (2 Bft)
15.05.2010 13:00 7,8 C 89 % 1008,1 hPa 0,0 l/m N-NO 0,00 h 105 W/m 9,8 km/h (2 Bft)
15.05.2010 14:00 7,9 C 86 % 1008,5 hPa 0,0 l/m N-NO 0,00 h 127 W/m 15,6 km/h (3 Bft)
15.05.2010 15:00 7,7 C 85 % 1009,0 hPa 0,0 l/m N 0,00 h 87 W/m 14,4 km/h (3 Bft)
15.05.2010 16:00 7,4 C 88 % 1009,1 hPa 0,0 l/m N 0,00 h 79 W/m 14,1 km/h (3 Bft)
15.05.2010 17:00 7,2 C 87 % 1009,4 hPa 0,0 l/m N 0,00 h 72 W/m 12,6 km/h (3 Bft)
15.05.2010 18:00 7,4 C 86 % 1009,7 hPa 0,0 l/m NW 0,00 h 52 W/m 9,7 km/h (2 Bft)
15.05.2010 19:00 7,2 C 85 % 1010,1 hPa 0,0 l/m N-NW 0,00 h 23 W/m 8,1 km/h (2 Bft)
15.05.2010 20:00 7,0 C 86 % 1010,7 hPa 0,0 l/m W-NW 0,00 h 10 W/m 7,0 km/h (2 Bft)
15.05.2010 21:00 6,8 C 88 % 1011,6 hPa 0,0 l/m W-NW 0,00 h 0 W/m 6,9 km/h (2 Bft)
15.05.2010 22:00 6,5 C 90 % 1012,3 hPa 0,2 l/m NW 0,00 h 0 W/m 7,1 km/h (2 Bft)
15.05.2010 23:00 6,0 C 92 % 1012,4 hPa 0,0 l/m N-NW 0,00 h 0 W/m 2,7 km/h (1 Bft)
16.05.2010 00:00 5,7 C 93 % 1012,5 hPa 0,0 l/m N-NW 0,00 h 0 W/m 2,1 km/h (1 Bft)
16.05.2010 01:00 5,6 C 94 % 1012,5 hPa 0,0 l/m N-NW 0,00 h 0 W/m 2,5 km/h (1 Bft)
16.05.2010 02:00 5,6 C 93 % 1012,3 hPa 0,0 l/m W-NW 0,00 h 0 W/m 4,3 km/h (1 Bft)
16.05.2010 03:00 5,5 C 94 % 1012,6 hPa 0,0 l/m W 0,00 h 0 W/m 1,9 km/h (1 Bft)
16.05.2010 04:00 5,3 C 94 % 1012,9 hPa 0,0 l/m N 0,00 h 0 W/m 3,6 km/h (1 Bft)
16.05.2010 05:00 5,4 C 92 % 1013,1 hPa 0,0 l/m W 0,00 h 0 W/m 6,4 km/h (2 Bft)
16.05.2010 06:00 5,4 C 92 % 1013,8 hPa 0,0 l/m W-SW 0,00 h 5 W/m 4,9 km/h (1 Bft)
16.05.2010 07:00 5,7 C 94 % 1014,2 hPa 0,0 l/m W-SW 0,00 h 23 W/m 5,5 km/h (1 Bft)
16.05.2010 08:00 5,9 C 94 % 1014,7 hPa 0,0 l/m SW 0,00 h 37 W/m 7,8 km/h (2 Bft)
16.05.2010 09:00 6,3 C 93 % 1015,2 hPa 0,0 l/m W-SW 0,00 h 89 W/m 9,2 km/h (2 Bft)
16.05.2010 10:00 7,0 C 90 % 1015,7 hPa 0,0 l/m W-SW 0,00 h 123 W/m 11,3 km/h (2 Bft)
16.05.2010 11:00 7,9 C 86 % 1016,2 hPa 0,0 l/m W-SW 0,00 h 260 W/m 15,3 km/h (3 Bft)
16.05.2010 12:00 9,1 C 82 % 1016,2 hPa 0,0 l/m W-SW 0,00 h 281 W/m 17,4 km/h (3 Bft)
16.05.2010 13:00 9,6 C 79 % 1016,4 hPa 0,0 l/m W 0,00 h 239 W/m 13,6 km/h (3 Bft)
16.05.2010 14:00 10,2 C 73 % 1016,8 hPa 0,0 l/m W-NW 0,00 h 270 W/m 11,7 km/h (2 Bft)
16.05.2010 15:00 10,3 C 78 % 1016,9 hPa 0,0 l/m SW 0,00 h 354 W/m 15,6 km/h (3 Bft)
16.05.2010 16:00 10,6 C 74 % 1016,9 hPa 0,0 l/m W 0,00 h 300 W/m 14,6 km/h (3 Bft)
16.05.2010 17:00 10,6 C 70 % 1017,3 hPa 0,0 l/m W-SW 0,00 h 167 W/m 11,4 km/h (2 Bft)
16.05.2010 18:00 10,0 C 76 % 1017,5 hPa 0,0 l/m S-SW 0,00 h 127 W/m 13,2 km/h (3 Bft)
16.05.2010 19:00 8,8 C 85 % 1017,8 hPa 0,0 l/m SW 0,00 h 66 W/m 14,0 km/h (3 Bft)
16.05.2010 20:00 8,2 C 84 % 1018,5 hPa 0,0 l/m SW 0,00 h 21 W/m 15,2 km/h (3 Bft)
16.05.2010 21:00 7,8 C 87 % 1019,2 hPa 0,0 l/m SW 0,00 h 0 W/m 10,9 km/h (2 Bft)
16.05.2010 22:00 6,9 C 89 % 1019,5 hPa 0,0 l/m SW 0,00 h 0 W/m 7,3 km/h (2 Bft)
16.05.2010 23:00 6,1 C 91 % 1019,5 hPa 0,0 l/m S-SW 0,00 h 0 W/m 5,5 km/h (1 Bft)
Min-Datum _ 16.05.10 12.05.10 11.05.10 - - - - 10.05.10
_ Min-Zeit 04:05 16:10 17:40 - - - - 00:20
Minimum _ 5,3 C 52 % 998,2 hPa - - - - 0,0 km/h (0 Bft)
Max-Datum _ 11.05.10 11.05.10 16.05.10 10.05.10 - 10.05.10 12.05.10 11.05.10
_ Max-Zeit 16:45 08:05 22:25 18:40 - 13:40 12:00 19:30
Maximum _ 20,1 C 100 % 1019,6 hPa 10,4 l/m - 0,08 h 1083 W/m 48,3 km/h
W-NW (6 Bft)
Durchschnitt _ 9,2 C 89 % 1007,6 hPa #35,6 l/m N-NO #12:25 h 183 W/m 8,6 km/h (2 Bft)